sensor_id;sensor_type;location;lat;lon;timestamp;pressure;altitude;pressure_sealevel;temperature;humidity
73016;BME280;61893;50.074;14.440;2023-07-20T00:02:12;97925.25;;;18.21;63.31
73016;BME280;61893;50.074;14.440;2023-07-20T00:04:38;97941.44;;;18.14;63.90
73016;BME280;61893;50.074;14.440;2023-07-20T00:07:05;97939.09;;;18.24;63.18
73016;BME280;61893;50.074;14.440;2023-07-20T00:09:31;97945.22;;;18.38;62.78
73016;BME280;61893;50.074;14.440;2023-07-20T00:11:57;97955.50;;;18.48;62.05
73016;BME280;61893;50.074;14.440;2023-07-20T00:14:25;97966.84;;;18.57;62.06
73016;BME280;61893;50.074;14.440;2023-07-20T00:16:51;97962.63;;;18.67;61.10
73016;BME280;61893;50.074;14.440;2023-07-20T00:19:27;97960.34;;;18.78;61.18
73016;BME280;61893;50.074;14.440;2023-07-20T00:21:54;97959.88;;;18.81;61.00
73016;BME280;61893;50.074;14.440;2023-07-20T00:24:20;97963.41;;;18.81;60.82
73016;BME280;61893;50.074;14.440;2023-07-20T00:26:46;97962.78;;;18.79;60.96
73016;BME280;61893;50.074;14.440;2023-07-20T00:29:12;97958.19;;;18.86;60.97
73016;BME280;61893;50.074;14.440;2023-07-20T00:31:38;97954.13;;;18.77;61.22
73016;BME280;61893;50.074;14.440;2023-07-20T00:34:05;97951.03;;;18.67;61.56
73016;BME280;61893;50.074;14.440;2023-07-20T00:36:32;97960.22;;;18.59;61.50
73016;BME280;61893;50.074;14.440;2023-07-20T00:38:58;97963.38;;;18.50;61.60
73016;BME280;61893;50.074;14.440;2023-07-20T00:41:24;97961.38;;;18.38;62.58
73016;BME280;61893;50.074;14.440;2023-07-20T00:43:50;97961.34;;;18.45;61.84
73016;BME280;61893;50.074;14.440;2023-07-20T00:46:16;97951.09;;;18.29;62.85
73016;BME280;61893;50.074;14.440;2023-07-20T00:51:11;97947.81;;;18.20;62.93
73016;BME280;61893;50.074;14.440;2023-07-20T00:56:07;97963.97;;;18.20;63.34
73016;BME280;61893;50.074;14.440;2023-07-20T01:01:10;97966.94;;;18.05;63.80
73016;BME280;61893;50.074;14.440;2023-07-20T01:03:36;97965.25;;;18.11;63.48
73016;BME280;61893;50.074;14.440;2023-07-20T01:11:38;97965.28;;;18.04;63.98
73016;BME280;61893;50.074;14.440;2023-07-20T01:14:05;97964.47;;;18.04;64.29
73016;BME280;61893;50.074;14.440;2023-07-20T01:16:31;97971.44;;;18.11;63.92
73016;BME280;61893;50.074;14.440;2023-07-20T01:18:58;97981.63;;;18.09;63.65
73016;BME280;61893;50.074;14.440;2023-07-20T01:21:31;97980.97;;;18.14;63.75
73016;BME280;61893;50.074;14.440;2023-07-20T01:24:20;97981.41;;;18.17;63.72
73016;BME280;61893;50.074;14.440;2023-07-20T01:32:54;97973.47;;;18.22;63.95
73016;BME280;61893;50.074;14.440;2023-07-20T01:35:23;97978.22;;;18.27;63.88
73016;BME280;61893;50.074;14.440;2023-07-20T01:37:53;97979.22;;;18.33;63.49
73016;BME280;61893;50.074;14.440;2023-07-20T01:40:19;97982.78;;;18.27;64.13
73016;BME280;61893;50.074;14.440;2023-07-20T01:42:48;97992.88;;;18.38;63.76
73016;BME280;61893;50.074;14.440;2023-07-20T01:45:14;97998.28;;;18.31;64.11
73016;BME280;61893;50.074;14.440;2023-07-20T01:47:40;97994.81;;;18.24;64.10
73016;BME280;61893;50.074;14.440;2023-07-20T01:50:06;98004.94;;;18.29;63.71
73016;BME280;61893;50.074;14.440;2023-07-20T01:52:32;97998.22;;;18.06;64.56
73016;BME280;61893;50.074;14.440;2023-07-20T01:54:58;97996.53;;;18.05;64.81
73016;BME280;61893;50.074;14.440;2023-07-20T01:57:23;97991.81;;;17.94;65.06
73016;BME280;61893;50.074;14.440;2023-07-20T01:59:50;97986.91;;;17.84;65.16
73016;BME280;61893;50.074;14.440;2023-07-20T02:02:15;97990.84;;;17.75;65.52
73016;BME280;61893;50.074;14.440;2023-07-20T02:04:41;97978.41;;;17.74;65.81
73016;BME280;61893;50.074;14.440;2023-07-20T02:07:07;97983.00;;;17.67;65.95
73016;BME280;61893;50.074;14.440;2023-07-20T02:09:33;97981.94;;;17.68;65.81
73016;BME280;61893;50.074;14.440;2023-07-20T02:11:58;97987.75;;;17.65;66.12
73016;BME280;61893;50.074;14.440;2023-07-20T02:14:24;97983.25;;;17.52;66.36
73016;BME280;61893;50.074;14.440;2023-07-20T02:16:49;97988.38;;;17.53;66.47
73016;BME280;61893;50.074;14.440;2023-07-20T02:19:18;97982.00;;;17.54;66.24
73016;BME280;61893;50.074;14.440;2023-07-20T02:21:44;97980.50;;;17.65;65.95
73016;BME280;61893;50.074;14.440;2023-07-20T02:24:11;97985.28;;;17.56;66.30
73016;BME280;61893;50.074;14.440;2023-07-20T02:26:37;97983.63;;;17.55;66.44
73016;BME280;61893;50.074;14.440;2023-07-20T02:29:03;97973.69;;;17.56;66.16
73016;BME280;61893;50.074;14.440;2023-07-20T02:31:30;97981.78;;;17.56;66.28
73016;BME280;61893;50.074;14.440;2023-07-20T02:33:56;97982.59;;;17.63;65.68
73016;BME280;61893;50.074;14.440;2023-07-20T02:36:22;97986.72;;;17.59;65.98
73016;BME280;61893;50.074;14.440;2023-07-20T02:38:48;97985.91;;;17.59;66.14
73016;BME280;61893;50.074;14.440;2023-07-20T02:41:14;97991.91;;;17.61;66.04
73016;BME280;61893;50.074;14.440;2023-07-20T02:43:40;97992.34;;;17.44;67.00
73016;BME280;61893;50.074;14.440;2023-07-20T02:46:05;97989.66;;;17.44;66.73
73016;BME280;61893;50.074;14.440;2023-07-20T02:48:31;97994.44;;;17.29;67.33
73016;BME280;61893;50.074;14.440;2023-07-20T02:50:57;97983.88;;;17.27;67.32
73016;BME280;61893;50.074;14.440;2023-07-20T02:53:25;97995.06;;;17.18;67.73
73016;BME280;61893;50.074;14.440;2023-07-20T02:55:51;97989.88;;;17.16;67.95
73016;BME280;61893;50.074;14.440;2023-07-20T02:58:18;97996.09;;;17.17;67.88
73016;BME280;61893;50.074;14.440;2023-07-20T03:00:44;98007.88;;;17.22;67.79
73016;BME280;61893;50.074;14.440;2023-07-20T03:03:10;97995.06;;;17.11;68.49
73016;BME280;61893;50.074;14.440;2023-07-20T03:05:36;98001.69;;;17.08;68.45
73016;BME280;61893;50.074;14.440;2023-07-20T03:08:14;98004.97;;;17.10;68.45
73016;BME280;61893;50.074;14.440;2023-07-20T03:10:46;98002.50;;;17.16;68.05
73016;BME280;61893;50.074;14.440;2023-07-20T03:13:13;98004.78;;;17.12;68.28
73016;BME280;61893;50.074;14.440;2023-07-20T03:15:39;97999.00;;;17.15;68.13
73016;BME280;61893;50.074;14.440;2023-07-20T03:18:05;97998.38;;;17.13;68.50
73016;BME280;61893;50.074;14.440;2023-07-20T03:20:31;98010.59;;;17.09;68.50
73016;BME280;61893;50.074;14.440;2023-07-20T03:22:57;98014.72;;;17.18;67.95
73016;BME280;61893;50.074;14.440;2023-07-20T03:25:23;98017.19;;;17.13;68.40
73016;BME280;61893;50.074;14.440;2023-07-20T03:27:49;98020.50;;;17.22;67.82
73016;BME280;61893;50.074;14.440;2023-07-20T03:30:14;98022.13;;;17.36;67.48
73016;BME280;61893;50.074;14.440;2023-07-20T03:32:40;98013.47;;;17.27;67.71
73016;BME280;61893;50.074;14.440;2023-07-20T03:35:06;98015.53;;;17.32;67.66
73016;BME280;61893;50.074;14.440;2023-07-20T03:37:33;98009.94;;;17.27;67.95
73016;BME280;61893;50.074;14.440;2023-07-20T03:40:01;98014.91;;;17.37;67.80
73016;BME280;61893;50.074;14.440;2023-07-20T03:42:27;98012.41;;;17.42;67.44
73016;BME280;61893;50.074;14.440;2023-07-20T03:44:53;98019.63;;;17.48;67.08
73016;BME280;61893;50.074;14.440;2023-07-20T03:47:19;98019.84;;;17.53;67.16
73016;BME280;61893;50.074;14.440;2023-07-20T03:49:45;98017.13;;;17.60;66.84
73016;BME280;61893;50.074;14.440;2023-07-20T03:52:11;98022.31;;;17.61;66.65
73016;BME280;61893;50.074;14.440;2023-07-20T03:54:37;98019.16;;;17.97;65.32
73016;BME280;61893;50.074;14.440;2023-07-20T03:57:03;98026.50;;;18.22;64.61
73016;BME280;61893;50.074;14.440;2023-07-20T03:59:29;98030.31;;;18.01;65.06
73016;BME280;61893;50.074;14.440;2023-07-20T04:01:55;98032.03;;;17.75;65.80
73016;BME280;61893;50.074;14.440;2023-07-20T04:04:21;98035.69;;;18.08;65.04
73016;BME280;61893;50.074;14.440;2023-07-20T04:06:47;98031.09;;;18.08;64.91
73016;BME280;61893;50.074;14.440;2023-07-20T04:09:13;98029.94;;;17.97;65.46
73016;BME280;61893;50.074;14.440;2023-07-20T04:11:39;98033.63;;;18.03;64.84
73016;BME280;61893;50.074;14.440;2023-07-20T04:14:05;98033.72;;;18.28;64.20
73016;BME280;61893;50.074;14.440;2023-07-20T04:16:31;98033.97;;;18.27;64.12
73016;BME280;61893;50.074;14.440;2023-07-20T04:18:58;98042.72;;;18.02;64.48
73016;BME280;61893;50.074;14.440;2023-07-20T04:24:13;98039.53;;;18.32;64.35
73016;BME280;61893;50.074;14.440;2023-07-20T04:26:40;98047.94;;;18.49;63.31
73016;BME280;61893;50.074;14.440;2023-07-20T04:29:06;98040.03;;;18.54;62.73
73016;BME280;61893;50.074;14.440;2023-07-20T04:31:32;98047.16;;;18.41;63.24
73016;BME280;61893;50.074;14.440;2023-07-20T04:34:01;98047.03;;;18.23;63.95
73016;BME280;61893;50.074;14.440;2023-07-20T04:36:27;98037.75;;;18.12;64.23
73016;BME280;61893;50.074;14.440;2023-07-20T04:38:53;98038.28;;;18.34;63.33
73016;BME280;61893;50.074;14.440;2023-07-20T04:41:19;98037.34;;;18.54;62.93
73016;BME280;61893;50.074;14.440;2023-07-20T04:43:50;98046.66;;;18.58;62.69
73016;BME280;61893;50.074;14.440;2023-07-20T04:46:16;98057.28;;;18.46;63.29
73016;BME280;61893;50.074;14.440;2023-07-20T04:48:44;98055.66;;;18.38;63.39
73016;BME280;61893;50.074;14.440;2023-07-20T04:51:25;98056.63;;;18.57;62.90
73016;BME280;61893;50.074;14.440;2023-07-20T04:54:05;98052.00;;;18.64;62.72
73016;BME280;61893;50.074;14.440;2023-07-20T04:56:31;98060.00;;;18.84;61.97
73016;BME280;61893;50.074;14.440;2023-07-20T04:58:56;98053.09;;;18.95;61.71
73016;BME280;61893;50.074;14.440;2023-07-20T05:01:23;98054.88;;;19.33;60.83
73016;BME280;61893;50.074;14.440;2023-07-20T05:03:49;98052.38;;;19.56;59.85
73016;BME280;61893;50.074;14.440;2023-07-20T05:06:15;98048.53;;;19.71;59.60
73016;BME280;61893;50.074;14.440;2023-07-20T05:08:41;98048.88;;;19.99;58.53
73016;BME280;61893;50.074;14.440;2023-07-20T05:11:13;98054.03;;;20.19;57.71
73016;BME280;61893;50.074;14.440;2023-07-20T05:13:38;98047.94;;;20.61;56.05
73016;BME280;61893;50.074;14.440;2023-07-20T05:16:04;98054.66;;;21.00;55.20
73016;BME280;61893;50.074;14.440;2023-07-20T05:18:30;98061.81;;;21.36;54.17
73016;BME280;61893;50.074;14.440;2023-07-20T05:21:01;98055.50;;;21.90;52.69
73016;BME280;61893;50.074;14.440;2023-07-20T05:23:26;98056.81;;;23.59;47.36
73016;BME280;61893;50.074;14.440;2023-07-20T05:25:56;98060.94;;;24.17;46.40
73016;BME280;61893;50.074;14.440;2023-07-20T05:28:26;98060.44;;;23.14;48.31
73016;BME280;61893;50.074;14.440;2023-07-20T05:30:52;98062.59;;;22.71;49.61
73016;BME280;61893;50.074;14.440;2023-07-20T05:35:52;98065.63;;;22.18;50.97
73016;BME280;61893;50.074;14.440;2023-07-20T05:38:19;98064.09;;;22.51;50.04
73016;BME280;61893;50.074;14.440;2023-07-20T05:40:45;98060.06;;;23.95;47.07
73016;BME280;61893;50.074;14.440;2023-07-20T05:43:13;98059.03;;;24.40;44.96
73016;BME280;61893;50.074;14.440;2023-07-20T05:45:43;98070.19;;;26.74;40.17
73016;BME280;61893;50.074;14.440;2023-07-20T05:48:09;98060.91;;;24.56;43.90
73016;BME280;61893;50.074;14.440;2023-07-20T05:50:42;98061.50;;;25.39;42.32
73016;BME280;61893;50.074;14.440;2023-07-20T05:53:09;98062.59;;;24.62;43.84
73016;BME280;61893;50.074;14.440;2023-07-20T05:55:35;98062.81;;;24.83;43.57
73016;BME280;61893;50.074;14.440;2023-07-20T05:58:02;98071.41;;;26.41;39.96
73016;BME280;61893;50.074;14.440;2023-07-20T06:00:29;98073.69;;;26.59;39.50
73016;BME280;61893;50.074;14.440;2023-07-20T06:02:58;98074.44;;;26.49;39.60
73016;BME280;61893;50.074;14.440;2023-07-20T06:05:24;98082.91;;;27.82;36.90
73016;BME280;61893;50.074;14.440;2023-07-20T06:07:50;98079.69;;;28.61;35.20
73016;BME280;61893;50.074;14.440;2023-07-20T06:10:16;98073.84;;;30.25;32.32
73016;BME280;61893;50.074;14.440;2023-07-20T06:12:43;98076.78;;;30.95;31.30
73016;BME280;61893;50.074;14.440;2023-07-20T06:15:26;98084.59;;;30.88;30.93
73016;BME280;61893;50.074;14.440;2023-07-20T06:17:54;98075.91;;;30.57;30.97
73016;BME280;61893;50.074;14.440;2023-07-20T06:20:22;98083.09;;;32.60;28.24
73016;BME280;61893;50.074;14.440;2023-07-20T06:22:49;98082.56;;;32.71;27.98
73016;BME280;61893;50.074;14.440;2023-07-20T06:25:18;98080.34;;;33.10;27.41
73016;BME280;61893;50.074;14.440;2023-07-20T06:27:46;98076.00;;;33.54;26.68
73016;BME280;61893;50.074;14.440;2023-07-20T06:30:12;98072.53;;;33.93;26.02
73016;BME280;61893;50.074;14.440;2023-07-20T06:32:38;98078.03;;;33.03;26.73
73016;BME280;61893;50.074;14.440;2023-07-20T06:35:05;98077.69;;;30.67;29.79
73016;BME280;61893;50.074;14.440;2023-07-20T06:37:32;98074.56;;;31.16;29.96
73016;BME280;61893;50.074;14.440;2023-07-20T06:39:58;98082.75;;;29.82;31.72
73016;BME280;61893;50.074;14.440;2023-07-20T06:42:24;98068.97;;;31.73;28.75
73016;BME280;61893;50.074;14.440;2023-07-20T06:44:56;98070.00;;;33.52;26.42
73016;BME280;61893;50.074;14.440;2023-07-20T06:47:25;98063.88;;;33.86;25.86
73016;BME280;61893;50.074;14.440;2023-07-20T06:49:52;98068.16;;;34.72;24.32
73016;BME280;61893;50.074;14.440;2023-07-20T06:52:18;98061.50;;;34.90;24.13
73016;BME280;61893;50.074;14.440;2023-07-20T06:54:44;98065.47;;;35.15;23.68
73016;BME280;61893;50.074;14.440;2023-07-20T07:00:13;98074.69;;;34.93;23.78
73016;BME280;61893;50.074;14.440;2023-07-20T07:02:42;98077.28;;;34.81;23.60
73016;BME280;61893;50.074;14.440;2023-07-20T07:05:07;98074.63;;;34.59;23.88
73016;BME280;61893;50.074;14.440;2023-07-20T07:07:34;98084.16;;;35.18;23.04
73016;BME280;61893;50.074;14.440;2023-07-20T07:10:01;98073.13;;;34.52;23.86
73016;BME280;61893;50.074;14.440;2023-07-20T07:12:30;98078.75;;;34.87;23.79
73016;BME280;61893;50.074;14.440;2023-07-20T07:14:56;98080.59;;;35.27;22.96
73016;BME280;61893;50.074;14.440;2023-07-20T07:17:23;98075.34;;;32.98;25.78
73016;BME280;61893;50.074;14.440;2023-07-20T07:19:49;98072.44;;;32.12;27.27
73016;BME280;61893;50.074;14.440;2023-07-20T07:22:33;98075.50;;;31.45;27.96
73016;BME280;61893;50.074;14.440;2023-07-20T07:24:59;98080.22;;;30.63;28.86
73016;BME280;61893;50.074;14.440;2023-07-20T07:27:33;98078.00;;;30.65;29.20
73016;BME280;61893;50.074;14.440;2023-07-20T07:30:04;98072.19;;;30.19;30.06
73016;BME280;61893;50.074;14.440;2023-07-20T07:32:31;98077.47;;;31.25;28.63
73016;BME280;61893;50.074;14.440;2023-07-20T07:34:57;98077.44;;;30.87;28.40
73016;BME280;61893;50.074;14.440;2023-07-20T07:37:26;98072.56;;;31.87;27.02
73016;BME280;61893;50.074;14.440;2023-07-20T07:39:52;98078.22;;;32.93;25.66
73016;BME280;61893;50.074;14.440;2023-07-20T07:42:18;98078.34;;;31.20;27.98
73016;BME280;61893;50.074;14.440;2023-07-20T07:44:45;98078.84;;;32.07;27.01
73016;BME280;61893;50.074;14.440;2023-07-20T07:47:15;98079.19;;;31.40;27.38
73016;BME280;61893;50.074;14.440;2023-07-20T07:49:41;98076.28;;;29.97;29.50
73016;BME280;61893;50.074;14.440;2023-07-20T07:52:10;98075.22;;;30.46;29.24
73016;BME280;61893;50.074;14.440;2023-07-20T07:54:51;98075.06;;;31.18;28.48
73016;BME280;61893;50.074;14.440;2023-07-20T07:57:43;98076.53;;;32.42;26.48
73016;BME280;61893;50.074;14.440;2023-07-20T08:00:26;98078.78;;;34.07;24.32
73016;BME280;61893;50.074;14.440;2023-07-20T08:02:58;98081.50;;;34.30;24.11
73016;BME280;61893;50.074;14.440;2023-07-20T08:05:24;98077.44;;;32.23;25.82
73016;BME280;61893;50.074;14.440;2023-07-20T08:08:04;98078.50;;;31.48;27.16
73016;BME280;61893;50.074;14.440;2023-07-20T08:10:31;98086.59;;;32.88;24.82
73016;BME280;61893;50.074;14.440;2023-07-20T08:13:00;98083.25;;;31.05;26.86
73016;BME280;61893;50.074;14.440;2023-07-20T08:15:26;98078.75;;;28.11;31.93
73016;BME280;61893;50.074;14.440;2023-07-20T08:18:06;98086.66;;;28.17;31.93
73016;BME280;61893;50.074;14.440;2023-07-20T08:20:33;98091.34;;;28.06;32.10
73016;BME280;61893;50.074;14.440;2023-07-20T08:23:21;98083.16;;;27.96;32.90
73016;BME280;61893;50.074;14.440;2023-07-20T08:25:47;98096.03;;;27.80;32.89
73016;BME280;61893;50.074;14.440;2023-07-20T08:28:22;98094.09;;;27.45;33.34
73016;BME280;61893;50.074;14.440;2023-07-20T08:31:19;98094.97;;;29.22;31.20
73016;BME280;61893;50.074;14.440;2023-07-20T08:33:45;98088.66;;;30.19;29.24
73016;BME280;61893;50.074;14.440;2023-07-20T08:36:16;98098.69;;;31.57;27.59
73016;BME280;61893;50.074;14.440;2023-07-20T08:38:47;98098.66;;;32.23;26.38
73016;BME280;61893;50.074;14.440;2023-07-20T08:41:15;98101.03;;;32.71;26.15
73016;BME280;61893;50.074;14.440;2023-07-20T08:43:42;98093.06;;;33.56;24.53
73016;BME280;61893;50.074;14.440;2023-07-20T08:46:20;98095.72;;;31.86;26.74
73016;BME280;61893;50.074;14.440;2023-07-20T08:48:53;98099.06;;;31.13;27.68
73016;BME280;61893;50.074;14.440;2023-07-20T08:51:32;98099.31;;;29.67;29.64
73016;BME280;61893;50.074;14.440;2023-07-20T08:54:00;98097.91;;;28.86;30.94
73016;BME280;61893;50.074;14.440;2023-07-20T08:56:33;98104.13;;;29.07;31.16
73016;BME280;61893;50.074;14.440;2023-07-20T08:59:02;98107.59;;;30.20;29.07
73016;BME280;61893;50.074;14.440;2023-07-20T09:03:59;98093.66;;;31.08;27.59
73016;BME280;61893;50.074;14.440;2023-07-20T09:06:51;98094.91;;;28.87;30.76
73016;BME280;61893;50.074;14.440;2023-07-20T09:09:18;98095.38;;;29.44;30.43
73016;BME280;61893;50.074;14.440;2023-07-20T09:11:49;98085.91;;;28.82;30.65
73016;BME280;61893;50.074;14.440;2023-07-20T09:14:17;98093.28;;;27.50;33.65
73016;BME280;61893;50.074;14.440;2023-07-20T09:17:20;98079.00;;;28.24;32.09
73016;BME280;61893;50.074;14.440;2023-07-20T09:19:51;98092.28;;;26.72;34.24
73016;BME280;61893;50.074;14.440;2023-07-20T09:22:17;98082.16;;;26.58;35.19
73016;BME280;61893;50.074;14.440;2023-07-20T09:24:50;98079.81;;;26.29;35.42
73016;BME280;61893;50.074;14.440;2023-07-20T09:27:20;98090.66;;;26.14;35.36
73016;BME280;61893;50.074;14.440;2023-07-20T09:29:59;98085.94;;;25.99;35.56
73016;BME280;61893;50.074;14.440;2023-07-20T09:32:44;98084.19;;;25.50;36.04
73016;BME280;61893;50.074;14.440;2023-07-20T09:35:18;98079.31;;;25.57;36.30
73016;BME280;61893;50.074;14.440;2023-07-20T09:37:59;98087.38;;;26.69;33.65
73016;BME280;61893;50.074;14.440;2023-07-20T09:40:26;98081.13;;;29.08;30.04
73016;BME280;61893;50.074;14.440;2023-07-20T09:42:53;98074.34;;;29.98;28.57
73016;BME280;61893;50.074;14.440;2023-07-20T09:45:39;98073.16;;;30.33;27.83
73016;BME280;61893;50.074;14.440;2023-07-20T09:48:07;98076.88;;;30.66;27.11
73016;BME280;61893;50.074;14.440;2023-07-20T09:50:39;98080.00;;;30.79;26.64
73016;BME280;61893;50.074;14.440;2023-07-20T09:53:08;98078.16;;;30.02;27.33
73016;BME280;61893;50.074;14.440;2023-07-20T09:55:35;98074.06;;;28.91;28.14
73016;BME280;61893;50.074;14.440;2023-07-20T09:58:02;98081.81;;;27.94;29.84
73016;BME280;61893;50.074;14.440;2023-07-20T10:00:29;98090.50;;;27.24;31.04
73016;BME280;61893;50.074;14.440;2023-07-20T10:02:56;98084.53;;;27.27;31.21
73016;BME280;61893;50.074;14.440;2023-07-20T10:05:31;98083.69;;;27.73;31.08
73016;BME280;61893;50.074;14.440;2023-07-20T10:10:40;98077.94;;;27.18;31.42
73016;BME280;61893;50.074;14.440;2023-07-20T10:13:17;98077.41;;;27.21;31.80
73016;BME280;61893;50.074;14.440;2023-07-20T10:15:46;98077.66;;;27.14;31.22
73016;BME280;61893;50.074;14.440;2023-07-20T10:18:42;98067.50;;;26.84;32.32
73016;BME280;61893;50.074;14.440;2023-07-20T10:21:12;98064.06;;;27.50;30.29
73016;BME280;61893;50.074;14.440;2023-07-20T10:23:39;98065.69;;;27.56;30.68
73016;BME280;61893;50.074;14.440;2023-07-20T10:26:08;98071.34;;;26.93;31.58
73016;BME280;61893;50.074;14.440;2023-07-20T10:28:37;98075.16;;;26.87;32.02
73016;BME280;61893;50.074;14.440;2023-07-20T10:31:03;98067.31;;;27.32;31.27
73016;BME280;61893;50.074;14.440;2023-07-20T10:33:31;98070.88;;;27.22;31.41
73016;BME280;61893;50.074;14.440;2023-07-20T10:36:01;98072.19;;;28.01;30.52
73016;BME280;61893;50.074;14.440;2023-07-20T10:38:40;98064.53;;;28.03;29.62
73016;BME280;61893;50.074;14.440;2023-07-20T10:41:23;98076.34;;;27.53;30.79
73016;BME280;61893;50.074;14.440;2023-07-20T10:44:04;98067.00;;;27.13;31.82
73016;BME280;61893;50.074;14.440;2023-07-20T10:49:07;98072.69;;;26.91;31.68
73016;BME280;61893;50.074;14.440;2023-07-20T10:51:44;98076.75;;;26.78;31.90
73016;BME280;61893;50.074;14.440;2023-07-20T10:56:41;98071.50;;;26.51;32.43
73016;BME280;61893;50.074;14.440;2023-07-20T11:01:55;98068.03;;;25.76;34.26
73016;BME280;61893;50.074;14.440;2023-07-20T11:04:39;98063.63;;;25.70;34.77
73016;BME280;61893;50.074;14.440;2023-07-20T11:07:05;98073.69;;;25.69;34.71
73016;BME280;61893;50.074;14.440;2023-07-20T11:09:37;98066.41;;;26.22;33.87
73016;BME280;61893;50.074;14.440;2023-07-20T11:12:17;98077.53;;;26.68;32.67
73016;BME280;61893;50.074;14.440;2023-07-20T11:14:56;98067.44;;;26.69;32.92
73016;BME280;61893;50.074;14.440;2023-07-20T11:17:29;98075.91;;;26.72;32.62
73016;BME280;61893;50.074;14.440;2023-07-20T11:19:57;98065.81;;;26.68;32.25
73016;BME280;61893;50.074;14.440;2023-07-20T11:22:23;98059.59;;;26.93;31.80
73016;BME280;61893;50.074;14.440;2023-07-20T11:24:50;98068.50;;;26.58;32.78
73016;BME280;61893;50.074;14.440;2023-07-20T11:27:16;98066.34;;;26.65;32.64
73016;BME280;61893;50.074;14.440;2023-07-20T11:29:46;98066.97;;;26.98;32.10
73016;BME280;61893;50.074;14.440;2023-07-20T11:32:12;98060.22;;;27.21;31.50
73016;BME280;61893;50.074;14.440;2023-07-20T11:34:40;98056.94;;;27.34;31.32
73016;BME280;61893;50.074;14.440;2023-07-20T11:37:08;98054.22;;;27.34;31.16
73016;BME280;61893;50.074;14.440;2023-07-20T11:39:43;98056.66;;;27.46;31.34
73016;BME280;61893;50.074;14.440;2023-07-20T11:42:09;98052.31;;;27.39;30.53
73016;BME280;61893;50.074;14.440;2023-07-20T11:44:35;98049.84;;;27.28;30.73
73016;BME280;61893;50.074;14.440;2023-07-20T11:47:03;98036.41;;;26.90;31.08
73016;BME280;61893;50.074;14.440;2023-07-20T11:50:02;98037.75;;;26.88;30.91
73016;BME280;61893;50.074;14.440;2023-07-20T11:52:33;98034.28;;;26.35;31.75
73016;BME280;61893;50.074;14.440;2023-07-20T11:55:08;98044.47;;;26.55;31.58
73016;BME280;61893;50.074;14.440;2023-07-20T11:57:37;98042.09;;;26.79;30.74
73016;BME280;61893;50.074;14.440;2023-07-20T12:00:08;98036.47;;;27.16;30.31
73016;BME280;61893;50.074;14.440;2023-07-20T12:02:40;98040.50;;;27.08;30.29
73016;BME280;61893;50.074;14.440;2023-07-20T12:05:07;98039.13;;;27.06;30.47
73016;BME280;61893;50.074;14.440;2023-07-20T12:07:35;98035.34;;;27.17;30.65
73016;BME280;61893;50.074;14.440;2023-07-20T12:10:06;98029.91;;;27.37;30.42
73016;BME280;61893;50.074;14.440;2023-07-20T12:12:38;98039.41;;;27.14;30.40
73016;BME280;61893;50.074;14.440;2023-07-20T12:18:00;98025.75;;;26.94;30.83
73016;BME280;61893;50.074;14.440;2023-07-20T12:20:36;98033.34;;;26.71;30.87
73016;BME280;61893;50.074;14.440;2023-07-20T12:25:56;98022.31;;;25.83;32.66
73016;BME280;61893;50.074;14.440;2023-07-20T12:28:22;98019.72;;;26.09;32.38
73016;BME280;61893;50.074;14.440;2023-07-20T12:30:49;98027.34;;;26.01;32.03
73016;BME280;61893;50.074;14.440;2023-07-20T12:39:08;98017.16;;;26.49;33.39
73016;BME280;61893;50.074;14.440;2023-07-20T12:41:39;98018.09;;;26.76;32.19
73016;BME280;61893;50.074;14.440;2023-07-20T12:44:06;98017.78;;;26.72;32.02
73016;BME280;61893;50.074;14.440;2023-07-20T12:46:57;98023.63;;;26.28;32.25
73016;BME280;61893;50.074;14.440;2023-07-20T12:49:23;98015.56;;;25.91;32.81
73016;BME280;61893;50.074;14.440;2023-07-20T12:51:49;98014.84;;;25.68;32.99
73016;BME280;61893;50.074;14.440;2023-07-20T12:54:15;98011.34;;;25.78;32.83
73016;BME280;61893;50.074;14.440;2023-07-20T12:56:41;98014.41;;;25.87;32.69
73016;BME280;61893;50.074;14.440;2023-07-20T12:59:10;98013.38;;;25.98;32.36
73016;BME280;61893;50.074;14.440;2023-07-20T13:01:37;98018.78;;;26.45;31.22
73016;BME280;61893;50.074;14.440;2023-07-20T13:04:03;98022.06;;;26.47;31.61
73016;BME280;61893;50.074;14.440;2023-07-20T13:09:48;98015.88;;;26.62;31.19
73016;BME280;61893;50.074;14.440;2023-07-20T13:12:15;98011.28;;;26.10;32.18
73016;BME280;61893;50.074;14.440;2023-07-20T13:14:43;98005.72;;;25.84;32.55
73016;BME280;61893;50.074;14.440;2023-07-20T13:17:14;98005.78;;;25.57;33.00
73016;BME280;61893;50.074;14.440;2023-07-20T13:19:49;98009.28;;;25.90;32.64
73016;BME280;61893;50.074;14.440;2023-07-20T13:22:23;98002.03;;;26.11;31.88
73016;BME280;61893;50.074;14.440;2023-07-20T13:25:09;98004.66;;;25.53;32.54
73016;BME280;61893;50.074;14.440;2023-07-20T13:27:35;98002.59;;;25.71;32.40
73016;BME280;61893;50.074;14.440;2023-07-20T13:30:02;97994.66;;;25.64;32.89
73016;BME280;61893;50.074;14.440;2023-07-20T13:35:05;97992.38;;;25.51;32.74
73016;BME280;61893;50.074;14.440;2023-07-20T13:37:32;97996.19;;;25.92;31.97
73016;BME280;61893;50.074;14.440;2023-07-20T13:39:59;97989.38;;;26.63;30.49
73016;BME280;61893;50.074;14.440;2023-07-20T13:42:25;97989.97;;;26.95;30.09
73016;BME280;61893;50.074;14.440;2023-07-20T13:44:51;97994.34;;;27.73;28.69
73016;BME280;61893;50.074;14.440;2023-07-20T13:53:23;97995.44;;;26.95;28.85
73016;BME280;61893;50.074;14.440;2023-07-20T13:58:52;97985.59;;;26.89;29.12
73016;BME280;61893;50.074;14.440;2023-07-20T14:01:19;97996.53;;;27.00;28.97
73016;BME280;61893;50.074;14.440;2023-07-20T14:03:46;97986.75;;;27.19;28.32
73016;BME280;61893;50.074;14.440;2023-07-20T14:06:15;97991.06;;;27.81;28.03
73016;BME280;61893;50.074;14.440;2023-07-20T14:08:44;97975.06;;;28.19;27.28